Time,TemperatureF,DewpointF,PressureIn,WindDirection,WindDirectionDegrees,WindSpeedMPH,WindSpeedGustMPH,Humidity,HourlyPrecipIn,Conditions,Clouds,dailyrainin,SolarRadiationWatts/m^2,SoftwareType,DateUTC
2013-01-28 00:08:00,59.1,55.0,29.82,WSW,252,3.0,6.0,86,0.00,,,0.00,0,weatherlink.com 1.10,2013-01-28 06:08:00,
2013-01-28 00:23:00,59.0,55.0,29.82,SW,214,4.0,5.0,86,0.00,,,0.00,0,weatherlink.com 1.10,2013-01-28 06:23:00,
2013-01-28 00:38:00,58.9,55.0,29.82,SSE,167,2.0,5.0,86,0.00,,,0.00,0,weatherlink.com 1.10,2013-01-28 06:38:00,
2013-01-28 00:53:00,58.8,55.0,29.82,SSW,207,1.0,6.0,87,0.00,,,0.00,0,weatherlink.com 1.10,2013-01-28 06:53:00,
2013-01-28 01:08:00,58.8,55.0,29.81,South,180,3.0,6.0,87,0.00,,,0.00,0,weatherlink.com 1.10,2013-01-28 07:08:00,
2013-01-28 01:23:00,58.8,55.0,29.81,SE,127,5.0,6.0,87,0.00,,,0.00,0,weatherlink.com 1.10,2013-01-28 07:23:00,
2013-01-28 01:38:00,59.0,55.0,29.81,SW,215,3.0,7.0,87,0.00,,,0.00,0,weatherlink.com 1.10,2013-01-28 07:38:00,
2013-01-28 01:53:00,59.2,56.0,29.81,SW,221,2.0,7.0,88,0.00,,,0.00,0,weatherlink.com 1.10,2013-01-28 07:53:00,
2013-01-28 02:08:00,59.4,56.0,29.81,South,174,0.0,6.0,88,0.00,,,0.00,0,weatherlink.com 1.10,2013-01-28 08:08:00,
2013-01-28 02:23:00,59.4,56.0,29.81,South,186,1.0,6.0,88,0.00,,,0.00,0,weatherlink.com 1.10,2013-01-28 08:23:00,
2013-01-28 02:38:00,59.3,56.0,29.81,SSE,151,0.0,3.0,88,0.00,,,0.00,0,weatherlink.com 1.10,2013-01-28 08:38:00,
2013-01-28 02:53:00,58.9,55.0,29.82,SSE,157,0.0,3.0,87,0.00,,,0.00,0,weatherlink.com 1.10,2013-01-28 08:53:00,
2013-01-28 03:08:00,58.5,55.0,29.82,SSE,157,0.0,2.0,87,0.00,,,0.00,0,weatherlink.com 1.10,2013-01-28 09:08:00,
2013-01-28 03:23:00,56.3,51.0,29.82,SSE,157,3.0,4.0,83,0.00,,,0.00,0,weatherlink.com 1.10,2013-01-28 09:23:00,
2013-01-28 03:38:00,53.6,49.0,29.82,West,269,2.0,4.0,84,0.00,,,0.00,0,weatherlink.com 1.10,2013-01-28 09:38:00,
2013-01-28 03:53:00,52.4,48.0,29.82,West,275,0.0,2.0,86,0.00,,,0.00,0,weatherlink.com 1.10,2013-01-28 09:53:00,
2013-01-28 04:08:00,52.0,48.0,29.82,West,275,0.0,1.0,87,0.00,,,0.00,0,weatherlink.com 1.10,2013-01-28 10:08:00,
2013-01-28 04:23:00,51.9,49.0,29.82,West,275,0.0,1.0,88,0.00,,,0.00,0,weatherlink.com 1.10,2013-01-28 10:23:00,
2013-01-28 04:38:00,51.9,49.0,29.82,West,275,0.0,1.0,89,0.00,,,0.00,0,weatherlink.com 1.10,2013-01-28 10:38:00,
2013-01-28 04:53:00,51.9,49.0,29.82,West,275,0.0,1.0,89,0.00,,,0.00,0,weatherlink.com 1.10,2013-01-28 10:53:00,
2013-01-28 05:08:00,52.0,49.0,29.82,West,275,1.0,1.0,89,0.00,,,0.00,0,weatherlink.com 1.10,2013-01-28 11:08:00,
2013-01-28 05:23:00,52.1,49.0,29.81,West,275,1.0,2.0,90,0.00,,,0.00,0,weatherlink.com 1.10,2013-01-28 11:23:00,
2013-01-28 05:38:00,52.1,49.0,29.81,West,275,0.0,0.0,90,0.00,,,0.00,0,weatherlink.com 1.10,2013-01-28 11:38:00,
2013-01-28 05:53:00,52.2,49.0,29.81,West,275,0.0,0.0,90,0.00,,,0.00,0,weatherlink.com 1.10,2013-01-28 11:53:00,
2013-01-28 06:08:00,52.4,50.0,29.81,West,275,0.0,1.0,91,0.00,,,0.00,0,weatherlink.com 1.10,2013-01-28 12:08:00,
2013-01-28 06:23:00,53.3,51.0,29.81,West,263,0.0,1.0,91,0.00,,,0.00,0,weatherlink.com 1.10,2013-01-28 12:23:00,
2013-01-28 06:38:00,53.4,51.0,29.82,West,263,0.0,0.0,91,0.00,,,0.00,0,weatherlink.com 1.10,2013-01-28 12:38:00,
2013-01-28 06:53:00,53.2,51.0,29.82,West,263,0.0,0.0,91,0.00,,,0.00,0,weatherlink.com 1.10,2013-01-28 12:53:00,
2013-01-28 07:08:00,52.8,50.0,29.83,West,263,1.0,2.0,90,0.00,,,0.00,0,weatherlink.com 1.10,2013-01-28 13:08:00,
2013-01-28 07:23:00,51.9,49.0,29.83,West,263,0.0,2.0,90,0.00,,,0.00,0,weatherlink.com 1.10,2013-01-28 13:23:00,
2013-01-28 07:38:00,51.7,49.0,29.84,West,263,0.0,1.0,90,0.00,,,0.00,0,weatherlink.com 1.10,2013-01-28 13:38:00,
2013-01-28 07:53:00,51.6,49.0,29.84,West,263,0.0,0.0,90,0.00,,,0.00,9,weatherlink.com 1.10,2013-01-28 13:53:00,
2013-01-28 08:08:00,51.6,49.0,29.84,West,263,0.0,0.0,90,0.00,,,0.00,30,weatherlink.com 1.10,2013-01-28 14:08:00,
2013-01-28 08:23:00,51.8,49.0,29.84,West,263,0.0,0.0,91,0.00,,,0.00,35,weatherlink.com 1.10,2013-01-28 14:23:00,
2013-01-28 08:38:00,52.5,50.0,29.84,West,263,0.0,3.0,91,0.00,,,0.00,44,weatherlink.com 1.10,2013-01-28 14:38:00,
2013-01-28 08:53:00,52.8,50.0,29.83,West,263,0.0,0.0,91,0.00,,,0.00,63,weatherlink.com 1.10,2013-01-28 14:53:00,
2013-01-28 09:09:00,54.2,52.0,29.83,West,263,0.0,2.0,92,0.00,,,0.00,113,weatherlink.com 1.10,2013-01-28 15:09:00,
2013-01-28 09:24:00,57.0,55.0,29.82,West,263,0.0,2.0,92,0.00,,,0.00,135,weatherlink.com 1.10,2013-01-28 15:24:00,
2013-01-28 09:39:00,59.5,57.0,29.82,SSE,152,0.0,6.0,90,0.00,,,0.00,151,weatherlink.com 1.10,2013-01-28 15:39:00,
2013-01-28 09:54:00,60.9,57.0,29.82,SSE,148,2.0,7.0,87,0.00,,,0.00,153,weatherlink.com 1.10,2013-01-28 15:54:00,
2013-01-28 10:09:00,61.9,57.0,29.82,SW,216,1.0,8.0,84,0.00,,,0.00,369,weatherlink.com 1.10,2013-01-28 16:09:00,
2013-01-28 10:24:00,63.2,57.0,29.82,SW,228,2.0,8.0,81,0.00,,,0.00,188,weatherlink.com 1.10,2013-01-28 16:24:00,
2013-01-28 10:39:00,63.6,57.0,29.82,SSW,212,4.0,10.0,79,0.00,,,0.00,181,weatherlink.com 1.10,2013-01-28 16:39:00,
2013-01-28 10:54:00,64.7,58.0,29.81,West,261,5.0,8.0,78,0.00,,,0.00,450,weatherlink.com 1.10,2013-01-28 16:54:00,
2013-01-28 11:09:00,66.5,58.0,29.80,SSW,205,4.0,9.0,73,0.00,,,0.00,483,weatherlink.com 1.10,2013-01-28 17:09:00,
2013-01-28 11:24:00,67.4,57.0,29.80,West,259,7.0,12.0,70,0.00,,,0.00,432,weatherlink.com 1.10,2013-01-28 17:24:00,
2013-01-28 11:39:00,67.7,57.0,29.79,SSE,161,9.0,15.0,69,0.00,,,0.00,490,weatherlink.com 1.10,2013-01-28 17:39:00,
2013-01-28 11:54:00,69.1,57.0,29.79,SSW,196,7.0,11.0,66,0.00,,,0.00,490,weatherlink.com 1.10,2013-01-28 17:54:00,
2013-01-28 12:09:00,70.5,58.0,29.77,SSE,161,5.0,10.0,64,0.00,,,0.00,374,weatherlink.com 1.10,2013-01-28 18:09:00,
2013-01-28 12:24:00,71.4,58.0,29.76,SSW,213,2.0,11.0,62,0.00,,,0.00,517,weatherlink.com 1.10,2013-01-28 18:24:00,
2013-01-28 12:39:00,72.4,57.0,29.75,WSW,240,2.0,10.0,59,0.00,,,0.00,543,weatherlink.com 1.10,2013-01-28 18:39:00,
2013-01-28 12:54:00,72.7,57.0,29.75,West,269,5.0,18.0,59,0.00,,,0.00,396,weatherlink.com 1.10,2013-01-28 18:54:00,
2013-01-28 13:09:00,72.5,57.0,29.73,WNW,294,5.0,16.0,59,0.00,,,0.00,394,weatherlink.com 1.10,2013-01-28 19:09:00,
2013-01-28 13:24:00,73.0,58.0,29.72,SSW,199,7.0,16.0,59,0.00,,,0.00,464,weatherlink.com 1.10,2013-01-28 19:24:00,
2013-01-28 13:39:00,73.7,56.0,29.71,WSW,242,5.0,15.0,55,0.00,,,0.00,438,weatherlink.com 1.10,2013-01-28 19:39:00,
2013-01-28 13:54:00,73.7,58.0,29.71,SW,232,8.0,18.0,58,0.00,,,0.00,413,weatherlink.com 1.10,2013-01-28 19:54:00,
2013-01-28 14:10:00,73.5,58.0,29.70,WSW,258,4.0,16.0,59,0.00,,,0.00,454,weatherlink.com 1.10,2013-01-28 20:10:00,
2013-01-28 14:25:00,74.5,58.0,29.69,South,185,9.0,17.0,56,0.00,,,0.00,418,weatherlink.com 1.10,2013-01-28 20:25:00,
2013-01-28 14:40:00,74.8,57.0,29.69,SW,233,5.0,17.0,55,0.00,,,0.00,371,weatherlink.com 1.10,2013-01-28 20:40:00,
2013-01-28 14:55:00,74.0,58.0,29.69,SW,222,6.0,19.0,57,0.00,,,0.00,176,weatherlink.com 1.10,2013-01-28 20:55:00,
2013-01-28 15:10:00,73.5,58.0,29.69,WSW,250,6.0,15.0,59,0.00,,,0.00,169,weatherlink.com 1.10,2013-01-28 21:10:00,
2013-01-28 15:25:00,73.5,59.0,29.69,SSW,209,8.0,13.0,60,0.00,,,0.00,156,weatherlink.com 1.10,2013-01-28 21:25:00,
2013-01-28 15:40:00,73.4,59.0,29.69,East,82,3.0,14.0,61,0.00,,,0.00,213,weatherlink.com 1.10,2013-01-28 21:40:00,
2013-01-28 15:55:00,73.7,59.0,29.68,SSW,212,6.0,14.0,60,0.00,,,0.00,176,weatherlink.com 1.10,2013-01-28 21:55:00,
2013-01-28 16:10:00,73.7,58.0,29.68,SW,216,5.0,13.0,59,0.00,,,0.00,144,weatherlink.com 1.10,2013-01-28 22:10:00,
2013-01-28 16:25:00,73.4,59.0,29.67,SSW,204,6.0,14.0,60,0.00,,,0.00,70,weatherlink.com 1.10,2013-01-28 22:25:00,
2013-01-28 16:40:00,72.8,60.0,29.67,SSW,206,5.0,15.0,64,0.00,,,0.00,39,weatherlink.com 1.10,2013-01-28 22:40:00,
2013-01-28 16:55:00,72.1,60.0,29.66,SSW,211,1.0,12.0,66,0.00,,,0.00,51,weatherlink.com 1.10,2013-01-28 22:55:00,
2013-01-28 17:10:00,71.7,60.0,29.65,South,188,9.0,12.0,66,0.00,,,0.00,33,weatherlink.com 1.10,2013-01-28 23:10:00,
2013-01-28 17:25:00,71.2,60.0,29.65,WNW,300,6.0,11.0,67,0.00,,,0.00,14,weatherlink.com 1.10,2013-01-28 23:25:00,
2013-01-28 17:40:00,70.6,60.0,29.65,WSW,238,3.0,16.0,69,0.00,,,0.00,0,weatherlink.com 1.10,2013-01-28 23:40:00,
2013-01-28 17:55:00,70.0,60.0,29.64,North,355,1.0,11.0,70,0.00,,,0.00,0,weatherlink.com 1.10,2013-01-28 23:55:00,
2013-01-28 18:10:00,69.5,60.0,29.64,SE,142,2.0,12.0,71,0.00,,,0.00,0,weatherlink.com 1.10,2013-01-29 00:10:00,
2013-01-28 18:25:00,69.8,60.0,29.64,NNW,345,2.0,13.0,71,0.00,,,0.00,0,weatherlink.com 1.10,2013-01-29 00:25:00,
2013-01-28 18:40:00,69.5,60.0,29.65,South,180,4.0,13.0,71,0.00,,,0.00,0,weatherlink.com 1.10,2013-01-29 00:40:00,
2013-01-28 18:55:00,69.1,59.0,29.65,East,97,3.0,11.0,71,0.00,,,0.00,0,weatherlink.com 1.10,2013-01-29 00:55:00,
2013-01-28 19:10:00,69.0,60.0,29.65,SSE,154,6.0,12.0,72,0.00,,,0.00,0,weatherlink.com 1.10,2013-01-29 01:10:00,
2013-01-28 19:25:00,69.0,60.0,29.65,SE,136,10.0,10.0,72,0.00,,,0.00,0,weatherlink.com 1.10,2013-01-29 01:25:00,
2013-01-28 19:40:00,68.9,60.0,29.65,SSW,192,6.0,14.0,73,0.00,,,0.00,0,weatherlink.com 1.10,2013-01-29 01:40:00,
2013-01-28 19:55:00,68.6,60.0,29.65,SSE,148,6.0,18.0,74,0.00,,,0.00,0,weatherlink.com 1.10,2013-01-29 01:55:00,
2013-01-28 20:10:00,68.1,60.0,29.65,SSE,156,6.0,14.0,75,0.00,,,0.00,0,weatherlink.com 1.10,2013-01-29 02:10:00,
2013-01-28 20:25:00,67.9,60.0,29.65,South,169,3.0,14.0,76,0.00,,,0.00,0,weatherlink.com 1.10,2013-01-29 02:25:00,
2013-01-28 20:40:00,67.8,60.0,29.66,SE,144,5.0,15.0,76,0.00,,,0.00,0,weatherlink.com 1.10,2013-01-29 02:40:00,
2013-01-28 20:55:00,67.6,60.0,29.65,South,171,5.0,15.0,77,0.00,,,0.00,0,weatherlink.com 1.10,2013-01-29 02:55:00,
2013-01-28 21:10:00,67.1,60.0,29.65,South,173,4.0,10.0,78,0.00,,,0.00,0,weatherlink.com 1.10,2013-01-29 03:10:00,
2013-01-28 21:25:00,67.0,60.0,29.65,SE,146,2.0,18.0,79,0.00,,,0.00,0,weatherlink.com 1.10,2013-01-29 03:25:00,
2013-01-28 21:40:00,67.1,61.0,29.65,South,181,6.0,17.0,80,0.00,,,0.00,0,weatherlink.com 1.10,2013-01-29 03:40:00,
2013-01-28 21:55:00,67.1,61.0,29.64,WNW,282,4.0,13.0,80,0.00,,,0.00,0,weatherlink.com 1.10,2013-01-29 03:55:00,
2013-01-28 22:10:00,67.3,61.0,29.64,WSW,240,6.0,16.0,80,0.00,,,0.00,0,weatherlink.com 1.10,2013-01-29 04:10:00,
2013-01-28 22:25:00,67.6,61.0,29.64,WNW,286,5.0,14.0,80,0.00,,,0.00,0,weatherlink.com 1.10,2013-01-29 04:25:00,
2013-01-28 22:40:00,67.6,61.0,29.64,SW,228,5.0,14.0,80,0.00,,,0.00,0,weatherlink.com 1.10,2013-01-29 04:40:00,
2013-01-28 22:55:00,67.7,61.0,29.64,SSE,162,10.0,13.0,80,0.00,,,0.00,0,weatherlink.com 1.10,2013-01-29 04:55:00,
2013-01-28 23:10:00,67.6,61.0,29.63,SSW,205,2.0,13.0,80,0.00,,,0.00,0,weatherlink.com 1.10,2013-01-29 05:10:00,
2013-01-28 23:25:00,67.6,62.0,29.63,SSW,206,4.0,15.0,81,0.00,,,0.00,0,weatherlink.com 1.10,2013-01-29 05:25:00,
2013-01-28 23:40:00,67.6,62.0,29.61,West,263,5.0,19.0,81,0.00,,,0.00,0,weatherlink.com 1.10,2013-01-29 05:40:00,
2013-01-28 23:55:00,67.4,61.0,29.61,SW,219,5.0,11.0,81,0.00,,,0.00,0,weatherlink.com 1.10,2013-01-29 05:55:00,